createdAt,value
2023-04-16T00:00:33.121Z,94620.81
2023-04-16T00:03:20.928Z,94621.84
2023-04-16T00:05:48.710Z,94627.97
2023-04-16T00:08:16.070Z,94610.66
2023-04-16T00:10:43.712Z,94614.22
2023-04-16T00:13:13.389Z,94621.13
2023-04-16T00:15:40.971Z,94630.25
2023-04-16T00:18:08.195Z,94632.16
2023-04-16T00:20:35.748Z,94623.66
2023-04-16T00:23:02.886Z,94625.03
2023-04-16T00:25:33.238Z,94627.94
2023-04-16T00:28:00.657Z,94624.88
2023-04-16T00:30:28.253Z,94628.34
2023-04-16T00:32:55.702Z,94633.88
2023-04-16T00:35:23.483Z,94635.47
2023-04-16T00:37:50.674Z,94630.50
2023-04-16T00:40:18.324Z,94637.53
2023-04-16T00:42:46.013Z,94634.88
2023-04-16T00:45:14.023Z,94639.59
2023-04-16T00:47:41.351Z,94637.41
2023-04-16T00:50:09.193Z,94642.25
2023-04-16T00:52:36.679Z,94639.00
2023-04-16T00:55:06.675Z,94643.41
2023-04-16T00:57:33.936Z,94645.25
2023-04-16T01:00:03.002Z,94631.66
2023-04-16T01:02:30.754Z,94642.81
2023-04-16T01:04:58.326Z,94631.84
2023-04-16T01:07:25.557Z,94643.91
2023-04-16T01:09:53.203Z,94638.94
2023-04-16T01:12:20.399Z,94653.31
2023-04-16T01:14:48.215Z,94653.69
2023-04-16T01:17:15.844Z,94654.81
2023-04-16T01:19:43.563Z,94660.78
2023-04-16T01:22:10.939Z,94653.47
2023-04-16T01:24:38.790Z,94660.19
2023-04-16T01:27:06.481Z,94660.78
2023-04-16T01:29:33.965Z,94656.06
2023-04-16T01:32:01.380Z,94649.72
2023-04-16T01:34:32.714Z,94651.38
2023-04-16T01:36:59.925Z,94641.22
2023-04-16T01:39:28.239Z,94632.69
2023-04-16T01:41:57.610Z,94634.91
2023-04-16T01:44:25.696Z,94648.84
2023-04-16T01:46:53.233Z,94649.91
2023-04-16T01:49:22.927Z,94657.94
2023-04-16T01:51:50.124Z,94648.94
2023-04-16T01:54:17.664Z,94654.59
2023-04-16T01:56:45.487Z,94673.53
2023-04-16T01:59:12.978Z,94671.00
2023-04-16T02:01:42.746Z,94671.75
2023-04-16T02:04:11.182Z,94664.50
2023-04-16T02:06:39.149Z,94680.28
2023-04-16T02:09:06.855Z,94675.00
2023-04-16T02:11:34.476Z,94661.44
2023-04-16T02:14:02.038Z,94679.72
2023-04-16T02:16:29.635Z,94676.34
2023-04-16T02:19:08.409Z,94674.22
2023-04-16T02:21:37.064Z,94684.22
2023-04-16T02:24:05.355Z,94678.50
2023-04-16T02:26:33.510Z,94665.59
2023-04-16T02:29:06.485Z,94683.88
2023-04-16T02:31:40.315Z,94685.69
2023-04-16T02:34:09.266Z,94680.38
2023-04-16T02:36:36.629Z,94690.16
2023-04-16T02:39:04.799Z,94685.00
2023-04-16T02:41:32.049Z,94688.75
2023-04-16T02:43:59.670Z,94691.63
2023-04-16T02:46:27.222Z,94688.38
2023-04-16T02:48:54.973Z,94694.69
2023-04-16T02:51:22.153Z,94687.03
2023-04-16T02:53:49.767Z,94693.00
2023-04-16T02:56:16.969Z,94690.66
2023-04-16T02:58:44.549Z,94702.69
2023-04-16T03:01:11.828Z,94709.38
2023-04-16T03:03:39.503Z,94701.69
2023-04-16T03:06:06.748Z,94692.56
2023-04-16T03:08:34.394Z,94699.91
2023-04-16T03:11:01.751Z,94698.34
2023-04-16T03:13:29.384Z,94697.09
2023-04-16T03:15:56.865Z,94700.84
2023-04-16T03:18:24.835Z,94710.38
2023-04-16T03:20:53.331Z,94708.19
2023-04-16T03:23:20.971Z,94719.25
2023-04-16T03:25:48.288Z,94704.47
2023-04-16T03:28:18.749Z,94733.47
2023-04-16T03:30:55.386Z,94741.88
2023-04-16T03:33:23.190Z,94739.13
2023-04-16T03:35:58.461Z,94735.22
2023-04-16T03:38:29.071Z,94750.50
2023-04-16T03:40:57.920Z,94758.22
2023-04-16T03:43:25.885Z,94764.81
2023-04-16T03:45:53.214Z,94759.19
2023-04-16T03:48:26.443Z,94754.78
2023-04-16T03:50:54.629Z,94764.91
2023-04-16T03:53:22.097Z,94771.47
2023-04-16T03:55:52.767Z,94765.28
2023-04-16T03:58:21.602Z,94764.31
2023-04-16T04:00:48.850Z,94760.25
2023-04-16T04:03:18.743Z,94770.63
2023-04-16T04:05:48.770Z,94749.16
2023-04-16T04:08:21.883Z,94762.91
2023-04-16T04:10:49.313Z,94768.63
2023-04-16T04:13:16.888Z,94780.59
2023-04-16T04:15:44.927Z,94786.63
2023-04-16T04:18:12.529Z,94780.38
2023-04-16T04:20:41.403Z,94786.34
2023-04-16T04:23:09.507Z,94780.34
2023-04-16T04:25:37.058Z,94796.84
2023-04-16T04:28:04.796Z,94780.41
2023-04-16T04:30:32.371Z,94792.75
2023-04-16T04:33:02.289Z,94808.47
2023-04-16T04:35:29.542Z,94811.13
2023-04-16T04:37:59.198Z,94817.44
2023-04-16T04:40:27.583Z,94821.69
2023-04-16T04:42:55.097Z,94824.72
2023-04-16T04:45:27.216Z,94825.31
2023-04-16T04:47:55.854Z,94816.56
2023-04-16T04:50:23.193Z,94827.72
2023-04-16T04:52:50.768Z,94831.81
2023-04-16T04:55:18.131Z,94837.50
2023-04-16T04:57:45.686Z,94845.97
2023-04-16T05:00:13.144Z,94841.28
2023-04-16T05:02:48.093Z,94839.16
2023-04-16T05:05:15.758Z,94828.81
2023-04-16T05:07:43.335Z,94826.78
2023-04-16T05:10:10.870Z,94824.00
2023-04-16T05:12:38.423Z,94837.97
2023-04-16T05:15:06.279Z,94833.84
2023-04-16T05:17:33.930Z,94826.50
2023-04-16T05:20:01.358Z,94843.19
2023-04-16T05:22:28.947Z,94842.22
2023-04-16T05:24:56.598Z,94852.69
2023-04-16T05:27:24.247Z,94837.28
2023-04-16T05:29:51.500Z,94837.31
2023-04-16T05:32:21.806Z,94832.78
2023-04-16T05:34:49.053Z,94817.88
2023-04-16T05:37:16.529Z,94840.06
2023-04-16T05:39:43.684Z,94836.16
2023-04-16T05:42:11.337Z,94839.53
2023-04-16T05:44:38.587Z,94845.06
2023-04-16T05:47:09.986Z,94844.13
2023-04-16T05:49:40.093Z,94848.75
2023-04-16T05:52:07.736Z,94835.91
2023-04-16T05:54:34.892Z,94842.47
2023-04-16T05:57:02.539Z,94829.03
2023-04-16T05:59:31.109Z,94833.69
2023-04-16T06:01:58.857Z,94829.00
2023-04-16T06:04:26.530Z,94839.78
2023-04-16T06:06:54.035Z,94840.78
2023-04-16T06:09:21.180Z,94828.22
2023-04-16T06:11:49.234Z,94841.94
2023-04-16T06:14:16.498Z,94838.53
2023-04-16T06:16:44.306Z,94843.53
2023-04-16T06:19:11.707Z,94843.09
2023-04-16T06:21:39.510Z,94843.09
2023-04-16T06:24:09.856Z,94839.16
2023-04-16T06:26:37.571Z,94848.31
2023-04-16T06:29:04.996Z,94849.78
2023-04-16T06:31:32.628Z,94857.91
2023-04-16T06:33:59.994Z,94843.00
2023-04-16T06:36:29.176Z,94843.97
2023-04-16T06:38:56.422Z,94843.09
2023-04-16T06:41:25.919Z,94850.69
2023-04-16T06:43:53.177Z,94843.69
2023-04-16T06:46:20.874Z,94844.09
2023-04-16T06:48:48.214Z,94847.41
2023-04-16T06:51:17.051Z,94843.50
2023-04-16T06:53:44.774Z,94841.22
2023-04-16T06:56:12.440Z,94833.06
2023-04-16T06:58:39.739Z,94839.56
2023-04-16T07:01:07.325Z,94836.16
2023-04-16T07:03:35.258Z,94831.63
2023-04-16T07:06:03.090Z,94839.72
2023-04-16T07:08:30.432Z,94837.28
2023-04-16T07:10:58.306Z,94828.16
2023-04-16T07:13:26.114Z,94846.09
2023-04-16T07:15:54.297Z,94842.50
2023-04-16T07:18:21.901Z,94851.28
2023-04-16T07:20:49.628Z,94856.63
2023-04-16T07:23:16.829Z,94856.56
2023-04-16T07:25:44.649Z,94851.94
2023-04-16T07:28:12.052Z,94855.63
2023-04-16T07:30:39.667Z,94864.09
2023-04-16T07:33:07.057Z,94860.47
2023-04-16T07:35:34.682Z,94855.88
2023-04-16T07:38:01.994Z,94854.78
2023-04-16T07:40:30.441Z,94856.34
2023-04-16T07:42:57.837Z,94865.28
2023-04-16T07:45:25.359Z,94854.56
2023-04-16T07:47:52.774Z,94860.50
2023-04-16T07:50:23.080Z,94865.06
2023-04-16T07:52:50.326Z,94866.16
2023-04-16T07:55:18.135Z,94870.28
2023-04-16T07:57:45.958Z,94853.09
2023-04-16T08:00:20.898Z,94859.00
2023-04-16T08:02:48.777Z,94867.44
2023-04-16T08:05:16.672Z,94865.63
2023-04-16T08:07:44.107Z,94859.78
2023-04-16T08:10:12.163Z,94851.63
2023-04-16T08:12:39.612Z,94853.88
2023-04-16T08:15:08.324Z,94857.28
2023-04-16T08:17:35.722Z,94858.81
2023-04-16T08:20:04.156Z,94854.00
2023-04-16T08:22:31.476Z,94851.97
2023-04-16T08:24:59.113Z,94857.44
2023-04-16T08:27:26.424Z,94846.88
2023-04-16T08:29:54.003Z,94839.75
2023-04-16T08:32:21.295Z,94851.53
2023-04-16T08:34:48.983Z,94839.09
2023-04-16T08:37:16.281Z,94837.19
2023-04-16T08:39:43.901Z,94836.38
2023-04-16T08:42:19.405Z,94839.94
2023-04-16T08:44:49.355Z,94852.84
2023-04-16T08:47:16.895Z,94827.31
2023-04-16T08:49:48.299Z,94832.56
2023-04-16T08:52:20.437Z,94838.66
2023-04-16T08:55:03.558Z,94834.31
2023-04-16T08:57:44.873Z,94832.53
2023-04-16T09:00:14.346Z,94821.53
2023-04-16T09:02:43.030Z,94823.84
2023-04-16T09:05:13.677Z,94821.97
2023-04-16T09:07:42.395Z,94826.50
2023-04-16T09:10:10.899Z,94824.03
2023-04-16T09:12:39.362Z,94818.03
2023-04-16T09:15:08.304Z,94825.19
2023-04-16T09:17:35.938Z,94818.28
2023-04-16T09:20:06.260Z,94836.25
2023-04-16T09:22:33.632Z,94815.28
2023-04-16T09:25:01.432Z,94833.59
2023-04-16T09:27:28.738Z,94832.50
2023-04-16T09:29:56.317Z,94827.31
2023-04-16T09:32:28.044Z,94826.97
2023-04-16T09:34:59.600Z,94828.09
2023-04-16T09:37:30.033Z,94832.63
2023-04-16T09:40:04.931Z,94827.41
2023-04-16T09:42:34.258Z,94816.41
2023-04-16T09:45:04.867Z,94810.75
2023-04-16T09:47:44.650Z,94817.84
2023-04-16T09:50:18.602Z,94817.63
2023-04-16T09:52:53.357Z,94804.97
2023-04-16T09:55:27.675Z,94814.22
2023-04-16T09:58:01.731Z,94818.97
2023-04-16T10:00:31.657Z,94814.97
2023-04-16T10:03:07.081Z,94820.44
2023-04-16T10:05:35.417Z,94815.91
2023-04-16T10:08:03.431Z,94824.63
2023-04-16T10:10:32.406Z,94827.81
2023-04-16T10:13:00.318Z,94814.22
2023-04-16T10:15:29.854Z,94815.47
2023-04-16T10:17:58.995Z,94809.28
2023-04-16T10:20:28.351Z,94817.44
2023-04-16T10:22:56.747Z,94811.00
2023-04-16T10:25:24.780Z,94819.34
2023-04-16T10:27:52.321Z,94821.78
2023-04-16T10:30:21.908Z,94821.31
2023-04-16T10:32:51.240Z,94821.56
2023-04-16T10:35:21.804Z,94827.94
2023-04-16T10:37:49.552Z,94821.50
2023-04-16T10:40:27.877Z,94825.50
2023-04-16T10:43:01.093Z,94825.75
2023-04-16T10:45:38.041Z,94816.19
2023-04-16T10:48:08.830Z,94820.75
2023-04-16T10:50:37.566Z,94810.72
2023-04-16T10:53:27.021Z,94816.09
2023-04-16T10:56:04.619Z,94810.94
2023-04-16T10:58:35.465Z,94813.16
2023-04-16T11:01:11.426Z,94811.13
2023-04-16T11:03:43.153Z,94806.13
2023-04-16T11:06:14.851Z,94809.63
2023-04-16T11:08:53.878Z,94801.47
2023-04-16T11:11:23.429Z,94801.47
2023-04-16T11:13:56.061Z,94804.66
2023-04-16T11:16:25.556Z,94789.00
2023-04-16T11:18:53.953Z,94805.59
2023-04-16T11:21:24.468Z,94801.66
2023-04-16T11:23:53.494Z,94783.78
2023-04-16T11:26:31.320Z,94794.09
2023-04-16T11:29:00.396Z,94801.25
2023-04-16T11:31:28.412Z,94804.44
2023-04-16T11:33:56.997Z,94806.03
2023-04-16T11:36:26.937Z,94806.81
2023-04-16T11:39:03.697Z,94809.19
2023-04-16T11:41:31.392Z,94800.44
2023-04-16T11:43:58.718Z,94807.00
2023-04-16T11:46:39.676Z,94806.59
2023-04-16T11:49:07.080Z,94808.66
2023-04-16T11:51:42.511Z,94809.53
2023-04-16T11:54:12.081Z,94812.75
2023-04-16T11:56:46.923Z,94812.66
2023-04-16T11:59:23.294Z,94814.31
2023-04-16T12:01:52.731Z,94808.66
2023-04-16T12:04:21.726Z,94809.94
2023-04-16T12:07:12.370Z,94805.63
2023-04-16T12:09:43.935Z,94808.25
2023-04-16T12:13:27.572Z,94798.38
2023-04-16T12:15:57.272Z,94810.06
2023-04-16T12:18:28.825Z,94807.84
2023-04-16T12:20:56.528Z,94792.34
2023-04-16T12:23:33.169Z,94779.97
2023-04-16T12:26:10.625Z,94785.75
2023-04-16T12:28:38.847Z,94788.69
2023-04-16T12:31:07.469Z,94790.31
2023-04-16T12:33:34.696Z,94777.69
2023-04-16T12:36:16.689Z,94779.31
2023-04-16T12:38:43.948Z,94777.84
2023-04-16T12:41:11.561Z,94762.81
2023-04-16T12:43:38.829Z,94765.56
2023-04-16T12:46:06.937Z,94775.84
2023-04-16T12:48:34.762Z,94772.41
2023-04-16T12:51:02.791Z,94776.81
2023-04-16T12:53:30.216Z,94777.56
2023-04-16T12:55:57.911Z,94780.69
2023-04-16T12:58:25.192Z,94768.84
2023-04-16T13:00:52.713Z,94763.88
2023-04-16T13:03:24.097Z,94769.13
2023-04-16T13:05:51.991Z,94765.81
2023-04-16T13:08:19.296Z,94771.91
2023-04-16T13:10:46.939Z,94773.38
2023-04-16T13:13:14.480Z,94783.16
2023-04-16T13:15:42.061Z,94778.22
2023-04-16T13:18:09.369Z,94773.31
2023-04-16T13:20:37.127Z,94766.81
2023-04-16T13:23:07.225Z,94767.31
2023-04-16T13:25:35.278Z,94759.44
2023-04-16T13:28:03.041Z,94751.91
2023-04-16T13:30:31.896Z,94762.41
2023-04-16T13:32:59.712Z,94757.72
2023-04-16T13:35:27.640Z,94758.75
2023-04-16T13:37:54.958Z,94768.47
2023-04-16T13:40:22.541Z,94760.91
2023-04-16T13:42:49.860Z,94767.50
2023-04-16T13:45:17.631Z,94779.09
2023-04-16T13:47:44.919Z,94776.63
2023-04-16T13:50:12.667Z,94770.84
2023-04-16T13:52:39.892Z,94773.00
2023-04-16T13:55:10.229Z,94773.78
2023-04-16T13:57:37.539Z,94769.84
2023-04-16T14:00:05.693Z,94765.44
2023-04-16T14:02:33.301Z,94757.72
2023-04-16T14:05:01.137Z,94769.47
2023-04-16T14:07:29.399Z,94775.25
2023-04-16T14:09:56.986Z,94774.63
2023-04-16T14:12:28.569Z,94759.13
2023-04-16T14:14:57.252Z,94777.84
2023-04-16T14:17:24.846Z,94778.97
2023-04-16T14:19:52.545Z,94784.09
2023-04-16T14:22:19.877Z,94780.13
2023-04-16T14:24:47.555Z,94771.22
2023-04-16T14:27:19.787Z,94778.03
2023-04-16T14:29:47.391Z,94784.75
2023-04-16T14:32:14.827Z,94778.66
2023-04-16T14:34:42.494Z,94779.88
2023-04-16T14:37:09.949Z,94784.13
2023-04-16T14:39:39.338Z,94783.50
2023-04-16T14:42:06.815Z,94783.50
2023-04-16T14:44:34.444Z,94781.69
2023-04-16T14:47:01.711Z,94778.84
2023-04-16T14:49:29.430Z,94788.72
2023-04-16T14:51:57.264Z,94787.81
2023-04-16T14:54:24.907Z,94783.53
2023-04-16T14:56:52.206Z,94790.75
2023-04-16T14:59:19.954Z,94795.06
2023-04-16T15:01:47.455Z,94800.63
2023-04-16T15:04:15.444Z,94811.69
2023-04-16T15:06:43.120Z,94805.72
2023-04-16T15:09:11.054Z,94810.09
2023-04-16T15:11:38.546Z,94810.81
2023-04-16T15:14:07.005Z,94810.13
2023-04-16T15:16:34.434Z,94813.88
2023-04-16T15:19:07.243Z,94814.75
2023-04-16T15:21:34.599Z,94816.59
2023-04-16T15:24:02.767Z,94814.22
2023-04-16T15:26:30.673Z,94818.66
2023-04-16T15:28:58.278Z,94821.97
2023-04-16T15:31:26.250Z,94822.59
2023-04-16T15:33:54.738Z,94821.22
2023-04-16T15:36:22.266Z,94825.75
2023-04-16T15:38:49.832Z,94827.78
2023-04-16T15:41:17.120Z,94832.91
2023-04-16T15:43:45.324Z,94832.91
2023-04-16T15:46:15.382Z,94839.53
2023-04-16T15:48:43.149Z,94834.72
2023-04-16T15:51:12.735Z,94832.84
2023-04-16T15:53:40.383Z,94846.19
2023-04-16T15:56:07.663Z,94839.22
2023-04-16T15:58:35.373Z,94841.63
2023-04-16T16:01:02.675Z,94847.72
2023-04-16T16:03:32.458Z,94852.44
2023-04-16T16:06:00.005Z,94843.72
2023-04-16T16:08:27.620Z,94843.94
2023-04-16T16:10:55.075Z,94838.59
2023-04-16T16:13:22.652Z,94844.59
2023-04-16T16:15:51.060Z,94845.59
2023-04-16T16:18:18.838Z,94854.97
2023-04-16T16:20:46.160Z,94842.53
2023-04-16T16:23:13.902Z,94857.34
2023-04-16T16:25:42.353Z,94861.72
2023-04-16T16:28:12.664Z,94850.75
2023-04-16T16:30:40.933Z,94864.31
2023-04-16T16:33:08.662Z,94852.09
2023-04-16T16:35:36.829Z,94872.19
2023-04-16T16:38:05.066Z,94871.66
2023-04-16T16:40:32.459Z,94868.94
2023-04-16T16:43:00.153Z,94850.00
2023-04-16T16:45:28.769Z,94878.22
2023-04-16T16:47:59.029Z,94869.19
2023-04-16T16:50:26.392Z,94869.25
2023-04-16T16:52:55.181Z,94870.38
2023-04-16T16:55:23.199Z,94871.59
2023-04-16T16:57:50.979Z,94876.97
2023-04-16T17:00:20.293Z,94880.28
2023-04-16T17:02:50.411Z,94864.38
2023-04-16T17:05:18.280Z,94885.81
2023-04-16T17:07:46.138Z,94879.97
2023-04-16T17:10:20.078Z,94883.03
2023-04-16T17:12:48.903Z,94898.16
2023-04-16T17:15:19.115Z,94897.69
2023-04-16T17:17:48.444Z,94896.44
2023-04-16T17:20:16.174Z,94898.69
2023-04-16T17:22:43.919Z,94901.66
2023-04-16T17:25:11.807Z,94883.78
2023-04-16T17:27:39.484Z,94909.34
2023-04-16T17:30:07.616Z,94907.25
2023-04-16T17:32:35.493Z,94911.88
2023-04-16T17:35:04.542Z,94906.59
2023-04-16T17:37:32.423Z,94922.53
2023-04-16T17:39:59.722Z,94908.69
2023-04-16T17:42:27.332Z,94927.00
2023-04-16T17:44:54.677Z,94918.75
2023-04-16T17:47:22.497Z,94931.16
2023-04-16T17:49:53.401Z,94937.88
2023-04-16T17:52:21.710Z,94949.50
2023-04-16T17:54:49.254Z,94948.69
2023-04-16T17:57:17.104Z,94948.44
2023-04-16T17:59:44.274Z,94938.81
2023-04-16T18:02:12.001Z,94946.03
2023-04-16T18:04:41.616Z,94948.72
2023-04-16T18:07:09.405Z,94949.03
2023-04-16T18:09:37.016Z,94961.06
2023-04-16T18:12:04.938Z,94953.88
2023-04-16T18:14:34.475Z,94954.44
2023-04-16T18:17:03.580Z,94972.75
2023-04-16T18:19:32.502Z,94966.63
2023-04-16T18:22:02.260Z,94957.06
2023-04-16T18:24:29.545Z,94973.19
2023-04-16T18:26:57.089Z,94967.56
2023-04-16T18:29:25.500Z,94967.81
2023-04-16T18:31:55.127Z,94981.78
2023-04-16T18:34:22.960Z,94982.91
2023-04-16T18:36:50.671Z,94985.84
2023-04-16T18:39:18.276Z,94977.84
2023-04-16T18:41:48.084Z,94976.53
2023-04-16T18:44:16.330Z,94982.75
2023-04-16T18:46:46.241Z,94983.81
2023-04-16T18:49:13.802Z,94986.03
2023-04-16T18:51:42.248Z,94988.50
2023-04-16T18:54:09.531Z,94997.41
2023-04-16T18:56:37.334Z,94991.53
2023-04-16T18:59:04.714Z,94993.75
2023-04-16T19:01:32.346Z,94991.09
2023-04-16T19:03:59.789Z,94999.69
2023-04-16T19:06:27.983Z,95006.69
2023-04-16T19:08:55.519Z,94998.13
2023-04-16T19:11:23.282Z,94998.69
2023-04-16T19:13:50.648Z,95001.09
2023-04-16T19:16:18.368Z,95007.53
2023-04-16T19:18:45.761Z,94999.22
2023-04-16T19:21:13.535Z,94986.09
2023-04-16T19:23:40.922Z,95000.56
2023-04-16T19:26:08.638Z,95000.03
2023-04-16T19:28:36.031Z,95003.53
2023-04-16T19:31:03.853Z,95003.25
2023-04-16T19:33:31.622Z,95001.66
2023-04-16T19:36:00.470Z,94998.94
2023-04-16T19:38:28.306Z,94998.16
2023-04-16T19:40:55.999Z,94980.44
2023-04-16T19:43:23.520Z,94998.16
2023-04-16T19:45:53.604Z,94994.94
2023-04-16T19:48:21.607Z,94986.34
2023-04-16T19:50:51.430Z,94986.63
2023-04-16T19:53:18.756Z,94996.00
2023-04-16T19:55:46.351Z,94994.13
2023-04-16T19:58:17.399Z,94991.44
2023-04-16T20:00:45.045Z,94984.72
2023-04-16T20:03:12.365Z,94986.88
2023-04-16T20:05:40.083Z,94993.78
2023-04-16T20:08:07.345Z,94992.47
2023-04-16T20:10:34.961Z,95004.53
2023-04-16T20:13:02.184Z,94990.81
2023-04-16T20:15:29.807Z,94987.81
2023-04-16T20:17:57.679Z,94996.38
2023-04-16T20:20:25.695Z,94990.78
2023-04-16T20:22:52.978Z,94982.44
2023-04-16T20:25:20.851Z,94989.38
2023-04-16T20:27:48.288Z,94994.47
2023-04-16T20:30:16.037Z,94981.06
2023-04-16T20:32:43.281Z,94988.34
2023-04-16T20:35:11.676Z,94987.78
2023-04-16T20:37:39.223Z,94989.91
2023-04-16T20:40:09.033Z,94997.94
2023-04-16T20:42:36.371Z,95002.19
2023-04-16T20:45:05.061Z,94994.34
2023-04-16T20:47:34.836Z,94980.88
2023-04-16T20:50:03.143Z,94998.81
2023-04-16T20:52:31.004Z,95001.47
2023-04-16T20:54:58.558Z,94996.06
2023-04-16T20:57:26.322Z,94988.81
2023-04-16T20:59:54.890Z,94998.97
2023-04-16T21:02:23.826Z,94996.53
2023-04-16T21:04:51.696Z,95003.69
2023-04-16T21:07:19.132Z,94998.03
2023-04-16T21:09:46.762Z,95002.84
2023-04-16T21:12:13.995Z,95001.50
2023-04-16T21:14:41.505Z,95007.09
2023-04-16T21:17:08.772Z,94992.59
2023-04-16T21:19:36.257Z,95002.19
2023-04-16T21:22:03.511Z,95002.09
2023-04-16T21:24:33.150Z,95003.44
2023-04-16T21:27:01.076Z,95008.69
2023-04-16T21:29:28.688Z,95007.56
2023-04-16T21:31:55.972Z,95006.69
2023-04-16T21:34:23.626Z,95012.72
2023-04-16T21:36:50.885Z,95007.59
2023-04-16T21:39:19.996Z,95007.00
2023-04-16T21:41:47.684Z,95004.81
2023-04-16T21:44:15.547Z,95016.00
2023-04-16T21:46:43.011Z,95008.25
2023-04-16T21:49:10.970Z,95008.47
2023-04-16T21:51:40.486Z,95013.34
2023-04-16T21:54:08.312Z,95010.09
2023-04-16T21:56:35.592Z,95013.34
2023-04-16T21:59:03.605Z,95008.28
2023-04-16T22:01:30.958Z,95005.38
2023-04-16T22:03:58.722Z,95008.28
2023-04-16T22:06:27.354Z,95003.94
2023-04-16T22:08:55.057Z,95011.22
2023-04-16T22:11:22.808Z,95003.69
2023-04-16T22:13:50.447Z,95001.47
2023-04-16T22:16:17.803Z,95006.81
2023-04-16T22:18:46.523Z,95008.13
2023-04-16T22:21:14.136Z,95011.34
2023-04-16T22:23:41.848Z,95006.50
2023-04-16T22:26:09.342Z,95007.38
2023-04-16T22:28:36.915Z,95002.78
2023-04-16T22:31:05.488Z,95003.91
2023-04-16T22:33:36.930Z,94998.94
2023-04-16T22:36:04.807Z,94988.63
2023-04-16T22:38:32.395Z,94987.66
2023-04-16T22:40:59.785Z,94999.16
2023-04-16T22:43:28.210Z,94992.00
2023-04-16T22:46:04.637Z,94990.47
2023-04-16T22:48:34.189Z,94995.25
2023-04-16T22:51:01.355Z,94987.78
2023-04-16T22:53:28.929Z,94990.59
2023-04-16T22:55:56.274Z,94987.56
2023-04-16T22:58:23.791Z,94990.94
2023-04-16T23:00:52.147Z,94996.94
2023-04-16T23:03:21.799Z,94993.09
2023-04-16T23:05:49.281Z,94992.94
2023-04-16T23:08:16.858Z,95001.66
2023-04-16T23:10:44.234Z,94997.06
2023-04-16T23:13:11.910Z,94988.22
2023-04-16T23:15:39.107Z,94990.56
2023-04-16T23:18:06.958Z,94992.09
2023-04-16T23:20:34.196Z,94990.91
2023-04-16T23:23:01.769Z,94992.16
2023-04-16T23:25:28.998Z,94987.00
2023-04-16T23:27:56.955Z,94988.66
2023-04-16T23:30:24.115Z,94999.31
2023-04-16T23:32:51.832Z,94994.59
2023-04-16T23:35:22.998Z,94986.38
2023-04-16T23:37:50.640Z,94995.97
2023-04-16T23:40:17.980Z,94999.19
2023-04-16T23:42:45.618Z,94996.13
2023-04-16T23:45:12.982Z,95003.88
2023-04-16T23:47:40.647Z,95001.91
2023-04-16T23:50:10.564Z,94993.63
2023-04-16T23:52:38.115Z,95000.38
2023-04-16T23:55:05.793Z,94981.47
2023-04-16T23:57:33.381Z,94980.84
